Decoded Metar for KEVW (EVANSTON in WY, USA) (IATA:EVW) | Meteo·Mobile Aviation Weather
aviador You're here:

KEVW Decoded Metar

EVANSTON in WY, USA
Report Time2019-02-20 00:13:00
UTC Time2019-02-20 00:46:03
Flight Rules vfr VFR
Wind270° at 09 kt
W.Decomp.*RWY 23: 8.0 kt HW 4.1 kt RCW
W.Rank270° ranks 7
Current wind is below 270° avg. (12.2)
Visibility9999 m
Phenomena:N/A
Clouds:Scattered 019 Hf
Expected CloudBase > 1,600 ft AGL from Temp-Dew spread
CeilingNone
Temp-13°C (ISA -14)
Dew Point-17°C (72% RH)
AAT-19.7°C
QNH1007 hPa
Density Alt5,686 ft
Elevation7,142 ft
Report Wrong Elevation
Raw Report
KEVW 200013Z AUTO 27009KT 10SM SCT019 M13/M17 A2975 RMK AO2
T11331167=

Extra information for KEVW:More info

Metar Taf Metar & Taf Last 4 Metars F.Rules Stats Wind Profile Meteogram Temp Stats Airport Information Weather charts Add Link Nearby VenuesMetar ALERT Operation Metar Decoded Social comments

AIRNAV info for KEVW